createdAt,value
2019-01-13T00:02:03.210Z,25.60
2019-01-13T00:04:32.481Z,16.63
2019-01-13T00:07:01.756Z,18.33
2019-01-13T00:09:31.065Z,15.87
2019-01-13T00:12:00.453Z,18.67
2019-01-13T00:14:29.787Z,19.37
2019-01-13T00:16:59.854Z,19.03
2019-01-13T00:19:29.158Z,20.50
2019-01-13T00:21:58.583Z,19.17
2019-01-13T00:24:27.872Z,21.43
2019-01-13T00:26:57.526Z,19.47
2019-01-13T00:29:26.832Z,20.03
2019-01-13T00:31:57.350Z,23.63
2019-01-13T00:34:26.811Z,27.17
2019-01-13T00:36:56.384Z,19.00
2019-01-13T00:39:26.378Z,21.73
2019-01-13T00:41:55.758Z,19.40
2019-01-13T00:44:25.078Z,32.23
2019-01-13T00:46:54.357Z,29.30
2019-01-13T00:49:23.776Z,31.87
2019-01-13T00:51:53.093Z,27.90
2019-01-13T00:54:22.367Z,31.63
2019-01-13T00:56:51.711Z,23.83
2019-01-13T00:59:21.389Z,26.77
2019-01-13T01:01:50.772Z,25.10
2019-01-13T01:04:20.457Z,26.83
2019-01-13T01:06:50.010Z,27.97
2019-01-13T01:09:21.421Z,23.17
2019-01-13T01:11:51.864Z,31.07
2019-01-13T01:14:21.173Z,29.03
2019-01-13T01:16:50.710Z,30.83
2019-01-13T01:19:20.032Z,32.60
2019-01-13T01:21:49.350Z,30.27
2019-01-13T01:24:18.978Z,28.53
2019-01-13T01:26:48.373Z,37.63
2019-01-13T01:29:17.671Z,28.67
2019-01-13T01:31:46.927Z,31.13
2019-01-13T01:34:19.640Z,27.40
2019-01-13T01:36:48.900Z,29.23
2019-01-13T01:39:18.184Z,30.07
2019-01-13T01:41:47.460Z,30.97
2019-01-13T01:44:16.611Z,34.50
2019-01-13T01:46:46.222Z,24.07
2019-01-13T01:49:15.706Z,25.27
2019-01-13T01:51:44.966Z,26.87
2019-01-13T01:54:14.248Z,27.83
2019-01-13T01:56:43.513Z,28.03
2019-01-13T01:59:12.808Z,27.47
2019-01-13T02:01:42.098Z,29.03
2019-01-13T02:04:11.392Z,24.03
2019-01-13T02:06:40.743Z,31.70
2019-01-13T02:09:10.041Z,30.60
2019-01-13T02:11:39.641Z,35.37
2019-01-13T02:14:08.897Z,32.93
2019-01-13T02:16:38.457Z,28.93
2019-01-13T02:19:07.728Z,33.60
2019-01-13T02:21:37.369Z,34.27
2019-01-13T02:24:06.890Z,34.70
2019-01-13T02:26:36.192Z,26.87
2019-01-13T02:29:05.521Z,25.10
2019-01-13T02:31:34.820Z,37.07
2019-01-13T02:34:04.530Z,26.83
2019-01-13T02:36:33.903Z,28.67
2019-01-13T02:39:04.244Z,29.00
2019-01-13T02:41:33.818Z,28.47
2019-01-13T02:44:03.386Z,26.03
2019-01-13T02:46:32.693Z,32.07
2019-01-13T02:49:02.026Z,24.37
2019-01-13T02:51:31.840Z,28.67
2019-01-13T02:54:02.189Z,26.00
2019-01-13T02:56:31.413Z,18.93
2019-01-13T02:59:00.993Z,23.67
2019-01-13T03:01:30.751Z,27.63
2019-01-13T03:04:00.110Z,31.73
2019-01-13T03:06:29.412Z,28.47
2019-01-13T03:08:59.379Z,25.70
2019-01-13T03:11:49.370Z,16.67
2019-01-13T03:14:19.594Z,24.37
2019-01-13T03:16:48.889Z,19.73
2019-01-13T03:19:18.482Z,23.97
2019-01-13T03:21:47.772Z,24.80
2019-01-13T03:24:16.933Z,22.57
2019-01-13T03:26:46.230Z,23.17
2019-01-13T03:29:15.784Z,18.00
2019-01-13T03:31:45.357Z,19.63
2019-01-13T03:34:14.640Z,26.47
2019-01-13T03:36:44.219Z,24.10
2019-01-13T03:39:13.474Z,24.20
2019-01-13T03:41:43.035Z,22.93
2019-01-13T03:44:12.339Z,33.73
2019-01-13T03:46:41.664Z,34.87
2019-01-13T03:49:10.976Z,26.67
2019-01-13T03:51:40.278Z,30.63
2019-01-13T03:54:09.551Z,39.63
2019-01-13T03:56:38.826Z,32.37
2019-01-13T03:59:08.530Z,29.97
2019-01-13T04:01:38.516Z,32.10
2019-01-13T04:04:07.905Z,32.07
2019-01-13T04:06:37.558Z,33.37
2019-01-13T04:09:08.863Z,30.13
2019-01-13T04:11:38.150Z,39.33
2019-01-13T04:14:07.406Z,35.80
2019-01-13T04:16:37.497Z,41.50
2019-01-13T04:19:06.809Z,42.63
2019-01-13T04:21:36.705Z,38.03
2019-01-13T04:24:06.394Z,38.73
2019-01-13T04:26:35.950Z,39.37
2019-01-13T04:29:05.474Z,31.40
2019-01-13T04:31:34.756Z,37.13
2019-01-13T04:34:04.009Z,29.40
2019-01-13T04:36:33.745Z,40.07
2019-01-13T04:39:04.553Z,33.80
2019-01-13T04:41:33.820Z,47.23
2019-01-13T04:44:03.174Z,49.73
2019-01-13T04:46:32.402Z,29.43
2019-01-13T04:49:01.884Z,48.27
2019-01-13T04:51:31.444Z,37.73
2019-01-13T04:54:00.716Z,32.80
2019-01-13T04:56:30.290Z,49.03
2019-01-13T04:58:59.785Z,33.20
2019-01-13T05:01:34.357Z,34.10
2019-01-13T05:04:00.406Z,31.63
2019-01-13T05:06:29.752Z,27.97
2019-01-13T05:08:59.062Z,49.77
2019-01-13T05:11:28.358Z,46.73
2019-01-13T05:13:57.646Z,49.33
2019-01-13T05:16:27.241Z,32.13
2019-01-13T05:18:56.793Z,30.30
2019-01-13T05:21:26.088Z,28.70
2019-01-13T05:23:55.393Z,31.17
2019-01-13T05:26:24.761Z,46.00
2019-01-13T05:28:54.061Z,32.93
2019-01-13T05:31:23.325Z,40.03
2019-01-13T05:33:52.624Z,29.03
2019-01-13T05:36:21.955Z,26.20
2019-01-13T05:38:51.271Z,35.90
2019-01-13T05:41:20.596Z,31.67
2019-01-13T05:43:50.606Z,44.33
2019-01-13T05:46:20.268Z,35.77
2019-01-13T05:48:49.552Z,29.50
2019-01-13T05:51:18.800Z,38.60
2019-01-13T05:53:48.057Z,32.67
2019-01-13T05:56:17.386Z,39.40
2019-01-13T05:58:47.077Z,30.10
2019-01-13T06:01:16.429Z,33.00
2019-01-13T06:03:46.003Z,24.13
2019-01-13T06:06:15.180Z,24.57
2019-01-13T06:08:44.630Z,29.23
2019-01-13T06:11:14.294Z,22.00
2019-01-13T06:13:43.606Z,29.00
2019-01-13T06:16:12.919Z,26.33
2019-01-13T06:18:42.192Z,27.50
2019-01-13T06:21:11.711Z,29.43
2019-01-13T06:23:41.715Z,32.97
2019-01-13T06:26:11.011Z,31.73
2019-01-13T06:28:40.292Z,29.07
2019-01-13T06:31:09.810Z,18.87
2019-01-13T06:33:39.111Z,30.70
2019-01-13T06:36:08.382Z,24.70
2019-01-13T06:38:37.702Z,29.13
2019-01-13T06:41:07.004Z,23.43
2019-01-13T06:43:36.276Z,25.97
2019-01-13T06:46:05.797Z,28.25
2019-01-13T06:48:35.097Z,24.57
2019-01-13T06:51:04.508Z,25.53
2019-01-13T06:53:34.169Z,27.00
2019-01-13T06:56:03.429Z,22.83
2019-01-13T06:58:33.018Z,24.43
2019-01-13T07:01:02.555Z,17.87
2019-01-13T07:03:32.006Z,24.67
2019-01-13T07:06:01.973Z,23.13
2019-01-13T07:08:31.665Z,21.70
2019-01-13T07:11:00.917Z,24.70
2019-01-13T07:13:30.254Z,27.33
2019-01-13T07:16:00.064Z,26.30
2019-01-13T07:18:29.383Z,20.20
2019-01-13T07:20:59.145Z,24.73
2019-01-13T07:23:28.411Z,27.27
2019-01-13T07:25:57.930Z,26.67
2019-01-13T07:28:27.686Z,28.97
2019-01-13T07:30:57.029Z,20.33
2019-01-13T07:33:26.390Z,23.33
2019-01-13T07:35:58.126Z,26.80
2019-01-13T07:38:27.668Z,31.07
2019-01-13T07:40:57.309Z,29.50
2019-01-13T07:43:26.925Z,30.20
2019-01-13T07:45:56.224Z,25.40
2019-01-13T07:48:25.469Z,19.70
2019-01-13T07:50:57.741Z,22.40
2019-01-13T07:53:27.041Z,25.10
2019-01-13T07:55:56.624Z,26.93
2019-01-13T07:58:25.949Z,20.27
2019-01-13T08:00:55.298Z,19.63
2019-01-13T08:03:26.454Z,16.00
2019-01-13T08:05:55.841Z,24.83
2019-01-13T08:08:25.111Z,21.33
2019-01-13T08:10:55.851Z,22.87
2019-01-13T08:13:25.221Z,22.10
2019-01-13T08:15:54.578Z,21.57
2019-01-13T08:18:23.955Z,28.37
2019-01-13T08:20:53.242Z,25.50
2019-01-13T08:23:22.666Z,16.13
2019-01-13T08:25:51.994Z,22.70
2019-01-13T08:28:21.341Z,22.00
2019-01-13T08:30:50.674Z,19.93
2019-01-13T08:33:19.966Z,21.00
2019-01-13T08:35:49.345Z,18.17
2019-01-13T08:38:18.771Z,25.67
2019-01-13T08:40:48.073Z,28.60
2019-01-13T08:43:17.346Z,22.00
2019-01-13T08:45:50.393Z,24.00
2019-01-13T08:48:17.767Z,29.03
2019-01-13T08:50:47.105Z,32.60
2019-01-13T08:53:16.385Z,27.20
2019-01-13T08:55:45.654Z,19.63
2019-01-13T08:58:14.968Z,22.40
2019-01-13T09:00:46.724Z,19.30
2019-01-13T09:03:15.989Z,25.70
2019-01-13T09:05:45.409Z,24.90
2019-01-13T09:08:14.644Z,23.00
2019-01-13T09:10:43.902Z,21.73
2019-01-13T09:13:13.143Z,21.70
2019-01-13T09:15:42.629Z,19.80
2019-01-13T09:18:11.995Z,27.20
2019-01-13T09:20:41.366Z,20.30
2019-01-13T09:23:10.776Z,16.90
2019-01-13T09:25:40.096Z,24.10
2019-01-13T09:28:09.902Z,23.70
2019-01-13T09:30:39.215Z,13.30
2019-01-13T09:33:08.640Z,21.80
2019-01-13T09:35:37.964Z,29.27
2019-01-13T09:38:07.426Z,22.23
2019-01-13T09:40:36.925Z,18.30
2019-01-13T09:43:08.803Z,22.73
2019-01-13T09:45:38.180Z,23.00
2019-01-13T09:48:07.526Z,23.47
2019-01-13T09:50:36.828Z,19.45
2019-01-13T09:53:06.301Z,27.07
2019-01-13T09:55:35.567Z,30.37
2019-01-13T09:58:05.101Z,16.57
2019-01-13T10:00:38.261Z,16.70
2019-01-13T10:03:10.989Z,14.87
2019-01-13T10:05:40.439Z,29.33
2019-01-13T10:08:09.931Z,17.27
2019-01-13T10:10:39.348Z,20.17
2019-01-13T10:13:08.661Z,21.40
2019-01-13T10:15:37.928Z,24.77
2019-01-13T10:18:07.190Z,25.40
2019-01-13T10:20:36.559Z,16.60
2019-01-13T10:23:07.462Z,14.30
2019-01-13T10:25:36.873Z,26.67
2019-01-13T10:28:06.360Z,31.30
2019-01-13T10:30:35.985Z,21.57
2019-01-13T10:33:07.900Z,24.53
2019-01-13T10:35:36.876Z,23.73
2019-01-13T10:38:07.174Z,17.03
2019-01-13T10:40:36.473Z,29.20
2019-01-13T10:43:05.817Z,22.53
2019-01-13T10:45:35.051Z,15.67
2019-01-13T10:48:04.745Z,28.87
2019-01-13T10:50:41.527Z,24.57
2019-01-13T10:53:12.087Z,25.00
2019-01-13T10:55:41.247Z,23.93
2019-01-13T10:58:10.577Z,25.43
2019-01-13T11:00:39.876Z,19.43
2019-01-13T11:03:09.221Z,21.70
2019-01-13T11:05:38.650Z,19.03
2019-01-13T11:08:11.710Z,20.07
2019-01-13T11:10:39.454Z,22.57
2019-01-13T11:13:08.837Z,18.10
2019-01-13T11:15:38.157Z,21.13
2019-01-13T11:18:07.778Z,19.67
2019-01-13T11:20:39.200Z,19.70
2019-01-13T11:23:09.080Z,17.17
2019-01-13T11:25:40.222Z,26.70
2019-01-13T11:28:13.789Z,22.73
2019-01-13T11:30:43.136Z,16.53
2019-01-13T11:33:31.737Z,34.33
2019-01-13T11:36:01.113Z,20.00
2019-01-13T11:38:30.343Z,18.13
2019-01-13T11:41:00.196Z,17.43
2019-01-13T11:43:36.150Z,22.53
2019-01-13T11:46:05.453Z,24.47
2019-01-13T11:48:34.701Z,15.27
2019-01-13T11:51:04.452Z,20.90
2019-01-13T11:53:33.776Z,19.40
2019-01-13T11:56:04.719Z,17.83
2019-01-13T11:58:34.112Z,18.73
2019-01-13T12:01:03.808Z,17.20
2019-01-13T12:03:33.193Z,15.47
2019-01-13T12:06:02.538Z,19.57
2019-01-13T12:08:32.201Z,20.43
2019-01-13T12:11:01.556Z,21.03
2019-01-13T12:13:30.880Z,25.07
2019-01-13T12:16:00.296Z,15.90
2019-01-13T12:18:30.145Z,14.20
2019-01-13T12:21:03.252Z,15.67
2019-01-13T12:23:32.640Z,16.63
2019-01-13T12:26:01.931Z,19.17
2019-01-13T12:28:31.201Z,20.57
2019-01-13T12:31:00.463Z,13.97
2019-01-13T12:33:29.741Z,19.37
2019-01-13T12:35:59.281Z,17.87
2019-01-13T12:38:28.543Z,17.57
2019-01-13T12:40:57.805Z,18.97
2019-01-13T12:43:27.558Z,15.40
2019-01-13T12:45:56.817Z,10.67
2019-01-13T12:48:26.616Z,17.17
2019-01-13T12:50:55.816Z,13.03
2019-01-13T12:53:25.369Z,11.80
2019-01-13T12:55:56.365Z,14.37
2019-01-13T12:58:25.621Z,18.67
2019-01-13T13:00:55.023Z,12.20
2019-01-13T13:03:31.419Z,21.10
2019-01-13T13:05:58.892Z,14.17
2019-01-13T13:08:28.137Z,16.40
2019-01-13T13:10:57.847Z,16.55
2019-01-13T13:13:27.125Z,24.30
2019-01-13T13:15:56.295Z,20.87
2019-01-13T13:18:25.598Z,21.87
2019-01-13T13:20:55.055Z,18.80
2019-01-13T13:23:24.313Z,19.52
2019-01-13T13:25:54.214Z,23.47
2019-01-13T13:28:24.396Z,20.97
2019-01-13T13:30:53.861Z,22.00
2019-01-13T13:33:23.566Z,30.07
2019-01-13T13:35:52.829Z,17.70
2019-01-13T13:38:22.158Z,20.20
2019-01-13T13:40:51.979Z,25.20
2019-01-13T13:43:31.472Z,17.00
2019-01-13T13:46:01.288Z,22.50
2019-01-13T13:48:30.535Z,25.87
2019-01-13T13:50:59.910Z,25.07
2019-01-13T13:53:29.268Z,16.53
2019-01-13T13:55:58.541Z,25.70
2019-01-13T13:58:27.896Z,24.13
2019-01-13T14:00:57.194Z,23.07
2019-01-13T14:03:26.458Z,22.13
2019-01-13T14:05:55.849Z,22.77
2019-01-13T14:08:25.106Z,16.10
2019-01-13T14:10:57.099Z,24.92
2019-01-13T14:13:26.379Z,23.00
2019-01-13T14:15:55.702Z,21.80
2019-01-13T14:18:25.027Z,16.13
2019-01-13T14:20:54.312Z,14.77
2019-01-13T14:23:23.611Z,19.23
2019-01-13T14:25:52.937Z,19.97
2019-01-13T14:28:22.222Z,18.70
2019-01-13T14:30:51.499Z,20.60
2019-01-13T14:33:20.850Z,15.27
2019-01-13T14:35:50.266Z,18.00
2019-01-13T14:38:19.521Z,23.03
2019-01-13T14:40:48.797Z,24.33
2019-01-13T14:43:18.168Z,23.27
2019-01-13T14:45:47.653Z,17.17
2019-01-13T14:48:16.974Z,19.67
2019-01-13T14:51:10.981Z,17.53
2019-01-13T14:53:43.028Z,14.03
2019-01-13T14:56:12.317Z,21.03
2019-01-13T14:58:41.581Z,19.03
2019-01-13T15:01:10.908Z,19.70
2019-01-13T15:03:40.131Z,20.07
2019-01-13T15:06:09.444Z,16.30
2019-01-13T15:08:38.761Z,20.73
2019-01-13T15:11:08.027Z,18.83
2019-01-13T15:13:39.553Z,16.10
2019-01-13T15:16:10.240Z,13.03
2019-01-13T15:18:39.638Z,13.60
2019-01-13T15:21:08.937Z,16.67
2019-01-13T15:23:40.583Z,15.87
2019-01-13T15:26:09.938Z,16.00
2019-01-13T15:28:39.416Z,16.60
2019-01-13T15:31:08.812Z,13.73
2019-01-13T15:33:38.166Z,17.37
2019-01-13T15:36:07.533Z,14.03
2019-01-13T15:38:36.850Z,19.97
2019-01-13T15:41:06.160Z,10.70
2019-01-13T15:43:35.463Z,20.27
2019-01-13T15:46:07.052Z,18.40
2019-01-13T15:48:36.434Z,20.57
2019-01-13T15:51:05.827Z,19.57
2019-01-13T15:53:41.275Z,12.40
2019-01-13T15:56:10.591Z,16.90
2019-01-13T15:58:39.888Z,19.17
2019-01-13T16:01:09.231Z,14.63
2019-01-13T16:03:38.526Z,24.70
2019-01-13T16:06:07.870Z,20.03
2019-01-13T16:08:37.409Z,23.10
2019-01-13T16:11:06.766Z,18.93
2019-01-13T16:13:36.081Z,14.33
2019-01-13T16:16:05.480Z,17.47
2019-01-13T16:18:34.808Z,19.43
2019-01-13T16:21:04.279Z,15.47
2019-01-13T16:23:33.662Z,19.23
2019-01-13T16:26:03.051Z,16.13
2019-01-13T16:28:32.474Z,18.33
2019-01-13T16:31:01.762Z,13.60
2019-01-13T16:33:33.770Z,16.07
2019-01-13T16:36:03.086Z,27.77
2019-01-13T16:38:32.438Z,19.40
2019-01-13T16:41:01.763Z,15.53
2019-01-13T16:43:31.117Z,17.77
2019-01-13T16:46:00.770Z,24.47
2019-01-13T16:48:30.316Z,22.13
2019-01-13T16:51:01.690Z,27.67
2019-01-13T16:53:31.250Z,16.90
2019-01-13T16:56:01.626Z,24.93
2019-01-13T16:58:30.955Z,15.57
2019-01-13T17:01:22.914Z,18.53
2019-01-13T17:03:53.479Z,14.67
2019-01-13T17:06:22.798Z,15.03
2019-01-13T17:08:58.066Z,21.47
2019-01-13T17:11:27.147Z,12.77
2019-01-13T17:13:59.505Z,23.43
2019-01-13T17:16:28.855Z,21.03
2019-01-13T17:18:58.179Z,16.77
2019-01-13T17:21:27.486Z,17.50
2019-01-13T17:23:56.831Z,15.87
2019-01-13T17:26:26.210Z,11.73
2019-01-13T17:28:55.480Z,16.40
2019-01-13T17:31:24.796Z,20.13
2019-01-13T17:33:55.279Z,15.90
2019-01-13T17:36:24.604Z,11.53
2019-01-13T17:38:58.813Z,18.07
2019-01-13T17:41:27.918Z,24.23
2019-01-13T17:43:58.535Z,16.60
2019-01-13T17:46:28.001Z,22.03
2019-01-13T17:48:57.376Z,22.17
2019-01-13T17:51:29.165Z,27.60
2019-01-13T17:53:58.368Z,20.07
2019-01-13T17:56:27.697Z,25.90
2019-01-13T17:58:56.953Z,18.03
2019-01-13T18:01:32.764Z,11.20
2019-01-13T18:04:02.093Z,15.90
2019-01-13T18:06:34.410Z,11.75
2019-01-13T18:09:06.846Z,13.33
2019-01-13T18:11:38.924Z,13.73
2019-01-13T18:14:09.945Z,9.33
2019-01-13T18:16:39.312Z,14.30
2019-01-13T18:19:08.654Z,20.77
2019-01-13T18:21:38.171Z,15.00
2019-01-13T18:24:07.478Z,17.10
2019-01-13T18:26:36.781Z,21.40
2019-01-13T18:29:06.013Z,22.10
2019-01-13T18:31:35.465Z,18.43
2019-01-13T18:34:04.764Z,20.43
2019-01-13T18:36:34.040Z,21.67
2019-01-13T18:39:03.328Z,28.70
2019-01-13T18:41:32.619Z,11.70
2019-01-13T18:44:01.948Z,28.27
2019-01-13T18:46:33.845Z,27.73
2019-01-13T18:49:03.142Z,22.33
2019-01-13T18:51:32.505Z,29.13
2019-01-13T18:54:01.776Z,17.20
2019-01-13T18:56:33.802Z,26.47
2019-01-13T18:59:05.182Z,24.47
2019-01-13T19:01:38.409Z,23.43
2019-01-13T19:04:11.554Z,17.43
2019-01-13T19:06:41.098Z,16.53
2019-01-13T19:09:13.927Z,23.20
2019-01-13T19:11:47.137Z,24.80
2019-01-13T19:14:42.465Z,14.70
2019-01-13T19:17:21.846Z,21.47
2019-01-13T19:19:58.646Z,21.13
2019-01-13T19:22:29.693Z,26.27
2019-01-13T19:25:11.602Z,19.00
2019-01-13T19:27:42.037Z,23.13
2019-01-13T19:30:15.661Z,17.47
2019-01-13T19:32:48.133Z,22.23
2019-01-13T19:35:22.155Z,28.57
2019-01-13T19:37:51.526Z,28.20
2019-01-13T19:40:20.882Z,31.53
2019-01-13T19:42:50.249Z,31.37
2019-01-13T19:45:20.677Z,24.37
2019-01-13T19:47:53.403Z,21.63
2019-01-13T19:50:25.837Z,28.70
2019-01-13T19:52:55.259Z,25.00
2019-01-13T19:55:24.741Z,27.10
2019-01-13T19:57:58.225Z,20.80
2019-01-13T20:00:30.449Z,23.67
2019-01-13T20:02:59.777Z,27.53
2019-01-13T20:05:29.062Z,16.93
2019-01-13T20:07:58.341Z,29.70
2019-01-13T20:10:27.640Z,31.73
2019-01-13T20:12:57.080Z,33.20
2019-01-13T20:15:26.382Z,22.33
2019-01-13T20:17:55.837Z,20.27
2019-01-13T20:20:25.113Z,26.50
2019-01-13T20:22:54.536Z,31.67
2019-01-13T20:25:23.805Z,31.33
2019-01-13T20:27:53.124Z,38.43
2019-01-13T20:30:25.358Z,31.37
2019-01-13T20:32:54.613Z,25.37
2019-01-13T20:35:24.169Z,28.87
2019-01-13T20:38:10.625Z,25.77
2019-01-13T20:40:40.092Z,22.43
2019-01-13T20:43:09.414Z,22.20
2019-01-13T20:45:42.046Z,25.73
2019-01-13T20:48:11.326Z,30.43
2019-01-13T20:50:40.499Z,26.70
2019-01-13T20:53:09.793Z,23.93
2019-01-13T20:55:41.804Z,22.83
2019-01-13T20:58:11.042Z,19.13
2019-01-13T21:00:40.338Z,26.70
2019-01-13T21:03:09.585Z,30.73
2019-01-13T21:05:38.817Z,25.10
2019-01-13T21:08:08.125Z,36.60
2019-01-13T21:10:37.510Z,24.90
2019-01-13T21:13:06.903Z,28.43
2019-01-13T21:15:37.153Z,21.93
2019-01-13T21:18:06.438Z,29.70
2019-01-13T21:20:35.713Z,33.27
2019-01-13T21:23:05.202Z,19.83
2019-01-13T21:25:34.477Z,24.10
2019-01-13T21:28:03.764Z,32.40
2019-01-13T21:30:33.392Z,28.57
2019-01-13T21:33:05.394Z,25.27
2019-01-13T21:35:34.644Z,27.70
2019-01-13T21:38:03.886Z,28.70
2019-01-13T21:40:33.179Z,26.40
2019-01-13T21:43:02.416Z,24.23
2019-01-13T21:45:31.643Z,33.80
2019-01-13T21:48:00.959Z,22.37
2019-01-13T21:50:30.265Z,36.37
2019-01-13T21:52:59.498Z,24.50
2019-01-13T21:55:28.801Z,30.53
2019-01-13T21:57:58.006Z,22.87
2019-01-13T22:00:30.564Z,26.47
2019-01-13T22:02:59.803Z,26.77
2019-01-13T22:05:29.093Z,29.87
2019-01-13T22:07:58.388Z,29.33
2019-01-13T22:10:28.052Z,26.97
2019-01-13T22:12:57.556Z,33.83
2019-01-13T22:15:26.807Z,33.40
2019-01-13T22:17:56.081Z,25.53
2019-01-13T22:20:25.348Z,27.90
2019-01-13T22:22:57.021Z,24.67
2019-01-13T22:25:26.305Z,26.33
2019-01-13T22:27:55.577Z,25.07
2019-01-13T22:30:24.986Z,24.97
2019-01-13T22:32:54.338Z,26.67
2019-01-13T22:35:23.571Z,26.33
2019-01-13T22:37:56.165Z,26.77
2019-01-13T22:40:25.617Z,19.90
2019-01-13T22:42:54.911Z,29.47
2019-01-13T22:45:24.906Z,24.23
2019-01-13T22:47:54.138Z,19.00
2019-01-13T22:50:23.418Z,25.27
2019-01-13T22:52:52.807Z,28.50
2019-01-13T22:55:22.105Z,25.40
2019-01-13T22:57:51.399Z,21.53
2019-01-13T23:01:30.993Z,19.70
2019-01-13T23:04:19.512Z,29.10
2019-01-13T23:06:48.861Z,23.80
2019-01-13T23:09:19.596Z,23.70
2019-01-13T23:11:48.999Z,26.70
2019-01-13T23:14:18.550Z,26.60
2019-01-13T23:16:47.780Z,26.50
2019-01-13T23:19:17.605Z,23.47
2019-01-13T23:21:46.904Z,26.50
2019-01-13T23:24:16.775Z,26.77
2019-01-13T23:26:46.322Z,25.80
2019-01-13T23:29:15.769Z,26.57
2019-01-13T23:31:45.051Z,24.33
2019-01-13T23:34:14.435Z,30.07
2019-01-13T23:36:43.674Z,24.67
2019-01-13T23:39:12.994Z,30.23
2019-01-13T23:41:42.308Z,31.60
2019-01-13T23:44:11.920Z,19.80
2019-01-13T23:46:41.448Z,27.40
2019-01-13T23:49:11.144Z,32.13
2019-01-13T23:51:40.757Z,28.70
2019-01-13T23:54:10.079Z,29.13
2019-01-13T23:56:39.531Z,28.70
2019-01-13T23:59:09.531Z,22.03
